FIMPFMEE

Guest
Details From FIMP - SIR SEEWOOSAGUR RAMGOOLAM INTL
To FMEE - St Denis Gillot
Flight Number -
Tags decoded
Created
Modified
Stats Distance 127 nm / 235 km
Max Altitude 0 ft / 0 m
Waypoints 4
Social Downloads 12
Likes 0
Share VATSIM

Download

Looking for another format? Having issues loading an existing format? Contact us
Advertisement - Login to hide

Notes

Requested: FIMP SOBAT D097Y D116V ERBES EE508 FMEE Unmatched points: D097Y D116V EE508

Route

FIMP SOBAT ERBES FMEE

ID Type Via Altitude Latitude Longitude Leg Dist Tot Dist Heading (true) Name
O FIMP APT - 0 ft / 0 m -20.43023˚ 57.68360˚ - 0 nm - SIR SEEWOOSAGUR RAMGOOLAM INTL
SOBAT FIX - 0 ft / 0 m -20.72469˚ 56.26711˚ 81 nm 81 nm 257° / 258° -
ERBES FIX - 0 ft / 0 m -20.94128˚ 55.75153˚ 31 nm 113 nm 246° / 246° -
O FMEE APT - 0 ft / 0 m -20.88931˚ 55.51775˚ 13 nm 126 nm 283° / 283° St Denis Gillot

Altitude Profile

Advertisement - Login to hide

FIMP

Details ICAO FIMP (MRU)
Name SIR SEEWOOSAGUR RAMGOOLAM INTL
Region Mauritius
Timezone Indian/Mauritius (UTC+4.0)
Stats Elevation 186 ft / 57 m (AMSL)
Location -20.430235° 57.683602°
Runways 1
Magnetic Variation 18.413° W

METAR

FIMP 121800Z 08003KT 9999 VCSH FEW016 SCT050 26/25 Q1018

Decode

TAF

TAF FIMP 121700Z 1218/1400 08005KT 9999 SCT015 TEMPO 1218/1303 7000 -SHRA FEW010 BKN015 BKN050 BECMG 1220/1222 33003KT BECMG 1304/1306 08005KT

Decode

Departure Runways

ID Width Length Bearing (true) Bearing (mag) Surface Threshold Offset Overrun Length
14 148 ft / 45 m 11,037 ft / 3,364 m 117.22° 135.63° Asphalt 1,082 ft / 330 m 200 ft / 61 m
32 148 ft / 45 m 11,037 ft / 3,364 m 297.21° 315.62° Asphalt 0 ft / 0 m 0 ft / 0 m

FMEE

Details ICAO FMEE (RUN)
Name St Denis Gillot
Region Comoros, Mayotte, Réunion and Madagascar
Timezone Indian/Reunion (UTC+4.0)
Stats Elevation 66 ft / 20 m (AMSL)
Location -20.889313° 55.517752°
Runways 2
Magnetic Variation 18.981° W

METAR

FMEE 121800Z AUTO 11008KT CAVOK 27/20 Q1017 NOSIG

Decode

TAF

TAF FMEE 121700Z 1218/1324 14008KT 9999 FEW030 SCT080 TEMPO 1301/1306 4000 SHRA FEW020TCU BECMG 1304/1305 08010KT BECMG 1314/1316 12010KT

Decode

Destination Runways

ID Width Length Bearing (true) Bearing (mag) Surface Threshold Offset Overrun Length
12 148 ft / 45 m 10,581 ft / 3,225 m 102.26° 121.24° Asphalt 397 ft / 121 m 148 ft / 45 m
14 148 ft / 45 m 8,842 ft / 2,695 m 116.55° 135.53° Asphalt 338 ft / 103 m 98 ft / 30 m
30 148 ft / 45 m 10,581 ft / 3,225 m 282.25° 301.23° Asphalt 0 ft / 0 m 0 ft / 0 m
32 148 ft / 45 m 8,842 ft / 2,695 m 296.54° 315.52° Asphalt 1,175 ft / 358 m 377 ft / 115 m

Approach Navaids

Runway Type Ident Frequency Range Bearing (true) Bearing (mag) Slope Elevation
14 Localiser SD 110.30 MHz 18 nm / 33 km 116.63° 135.61° - 66 ft / 20 m (AMSL)
14 Glidescope SD 110.30 MHz 10 nm / 19 km 116.55° 135.53° 3.00° 46 ft / 14 m (AMSL)
14 DME SD 110.30 MHz 18 nm / 33 km - - - 46 ft / 14 m (AMSL)

Popular Alternatives